KPIB

Hattiesburg / Laurel Regional Airport

Hattiesburg-Laurel, Mississippi, USA
METAR KPIB 181356Z AUTO VRB04KT 10SM CLR 27/25 A3010 RMK AO2 SLP190 T02720250
Observed Flight Rules
Aug-18 @ 13:56 UTC (55 minutes ago) Visual Flight Rules
Wind Visibility Clouds
Variable at 4 knots 10 miles
  • Clear skies
Temperatures Readings
Current 27°C / 81°F
Dewpoint 25°C / 77°F
Humidity 89%
Altimeter 30.1" Hg
Pressure 1019 hPa
Elevation 91
METAR KPIB 181356Z AUTO VRB04KT 10SM CLR 27/25 A3010 RMK AO2 SLP190 T02720250
Observed Flight Rules
Aug-18 @ 13:56 UTC
(55 minutes ago)
VFR
Wind Visibility
Variable at 4 knots 10 miles
Clouds
  • Clear skies
Temperature Dewpoint
27°C / 81°F 25°C / 77°F
Humidity Altimeter Pressure
89% 30.1" Hg 1019 hPa